sensor_id;sensor_type;location;lat;lon;timestamp;temperature;humidity
84114;DHT22;74483;48.846;2.358;2024-03-08T00:02:00;21.40;21.90
84114;DHT22;74483;48.846;2.358;2024-03-08T00:04:25;21.40;21.90
84114;DHT22;74483;48.846;2.358;2024-03-08T00:06:51;21.40;21.90
84114;DHT22;74483;48.846;2.358;2024-03-08T00:09:17;21.40;21.90
84114;DHT22;74483;48.846;2.358;2024-03-08T00:11:42;21.30;21.90
84114;DHT22;74483;48.846;2.358;2024-03-08T00:14:08;21.40;21.90
84114;DHT22;74483;48.846;2.358;2024-03-08T00:16:33;21.40;21.80
84114;DHT22;74483;48.846;2.358;2024-03-08T00:19:00;21.40;21.80
84114;DHT22;74483;48.846;2.358;2024-03-08T00:21:26;21.30;21.80
84114;DHT22;74483;48.846;2.358;2024-03-08T00:23:55;21.30;22.50
84114;DHT22;74483;48.846;2.358;2024-03-08T00:26:21;21.30;21.80
84114;DHT22;74483;48.846;2.358;2024-03-08T00:28:48;21.30;21.80
84114;DHT22;74483;48.846;2.358;2024-03-08T00:31:14;21.30;21.80
84114;DHT22;74483;48.846;2.358;2024-03-08T00:33:42;21.30;21.90
84114;DHT22;74483;48.846;2.358;2024-03-08T00:36:08;21.30;21.80
84114;DHT22;74483;48.846;2.358;2024-03-08T00:38:33;21.30;21.80
84114;DHT22;74483;48.846;2.358;2024-03-08T00:41:00;21.20;21.70
84114;DHT22;74483;48.846;2.358;2024-03-08T00:43:25;21.30;21.80
84114;DHT22;74483;48.846;2.358;2024-03-08T00:45:51;21.20;21.70
84114;DHT22;74483;48.846;2.358;2024-03-08T00:48:17;21.20;21.70
84114;DHT22;74483;48.846;2.358;2024-03-08T00:50:42;21.30;21.80
84114;DHT22;74483;48.846;2.358;2024-03-08T00:53:11;21.30;21.80
84114;DHT22;74483;48.846;2.358;2024-03-08T00:55:37;21.20;21.70
84114;DHT22;74483;48.846;2.358;2024-03-08T00:58:03;21.30;21.70
84114;DHT22;74483;48.846;2.358;2024-03-08T01:00:29;21.20;21.60
84114;DHT22;74483;48.846;2.358;2024-03-08T01:02:55;21.30;21.70
84114;DHT22;74483;48.846;2.358;2024-03-08T01:05:21;21.20;21.60
84114;DHT22;74483;48.846;2.358;2024-03-08T01:07:47;21.20;21.60
84114;DHT22;74483;48.846;2.358;2024-03-08T01:10:12;21.20;21.60
84114;DHT22;74483;48.846;2.358;2024-03-08T01:12:38;21.20;21.60
84114;DHT22;74483;48.846;2.358;2024-03-08T01:15:05;21.20;21.60
84114;DHT22;74483;48.846;2.358;2024-03-08T01:17:31;21.20;21.60
84114;DHT22;74483;48.846;2.358;2024-03-08T01:19:56;21.20;21.60
84114;DHT22;74483;48.846;2.358;2024-03-08T01:22:22;21.20;21.60
84114;DHT22;74483;48.846;2.358;2024-03-08T01:24:48;21.20;21.60
84114;DHT22;74483;48.846;2.358;2024-03-08T01:27:14;21.20;21.60
84114;DHT22;74483;48.846;2.358;2024-03-08T01:29:40;21.20;21.60
84114;DHT22;74483;48.846;2.358;2024-03-08T01:32:05;21.20;21.60
84114;DHT22;74483;48.846;2.358;2024-03-08T01:34:31;21.20;21.60
84114;DHT22;74483;48.846;2.358;2024-03-08T01:36:58;21.20;21.60
84114;DHT22;74483;48.846;2.358;2024-03-08T01:39:24;21.20;21.60
84114;DHT22;74483;48.846;2.358;2024-03-08T01:41:51;21.10;21.60
84114;DHT22;74483;48.846;2.358;2024-03-08T01:44:16;21.10;21.60
84114;DHT22;74483;48.846;2.358;2024-03-08T01:46:46;21.10;21.60
84114;DHT22;74483;48.846;2.358;2024-03-08T01:49:14;21.20;21.50
84114;DHT22;74483;48.846;2.358;2024-03-08T01:51:40;21.10;21.60
84114;DHT22;74483;48.846;2.358;2024-03-08T01:54:07;21.10;21.50
84114;DHT22;74483;48.846;2.358;2024-03-08T01:56:36;21.10;21.60
84114;DHT22;74483;48.846;2.358;2024-03-08T01:59:03;21.10;21.50
84114;DHT22;74483;48.846;2.358;2024-03-08T02:01:29;21.10;21.50
84114;DHT22;74483;48.846;2.358;2024-03-08T02:03:55;21.10;21.50
84114;DHT22;74483;48.846;2.358;2024-03-08T02:06:20;21.10;21.60
84114;DHT22;74483;48.846;2.358;2024-03-08T02:08:46;21.10;21.50
84114;DHT22;74483;48.846;2.358;2024-03-08T02:11:12;21.10;21.50
84114;DHT22;74483;48.846;2.358;2024-03-08T02:13:38;21.10;21.50
84114;DHT22;74483;48.846;2.358;2024-03-08T02:16:04;21.10;21.50
84114;DHT22;74483;48.846;2.358;2024-03-08T02:18:33;21.10;21.50
84114;DHT22;74483;48.846;2.358;2024-03-08T02:21:01;21.10;21.60
84114;DHT22;74483;48.846;2.358;2024-03-08T02:23:28;21.10;21.50
84114;DHT22;74483;48.846;2.358;2024-03-08T02:25:55;21.10;21.50
84114;DHT22;74483;48.846;2.358;2024-03-08T02:28:22;21.10;21.50
84114;DHT22;74483;48.846;2.358;2024-03-08T02:30:48;21.10;21.50
84114;DHT22;74483;48.846;2.358;2024-03-08T02:33:17;21.10;21.50
84114;DHT22;74483;48.846;2.358;2024-03-08T02:35:47;21.10;21.50
84114;DHT22;74483;48.846;2.358;2024-03-08T02:38:17;21.10;21.50
84114;DHT22;74483;48.846;2.358;2024-03-08T02:40:45;21.10;21.50
84114;DHT22;74483;48.846;2.358;2024-03-08T02:43:12;21.10;21.50
84114;DHT22;74483;48.846;2.358;2024-03-08T02:45:37;21.10;21.50
84114;DHT22;74483;48.846;2.358;2024-03-08T02:48:04;21.10;21.50
84114;DHT22;74483;48.846;2.358;2024-03-08T02:50:32;21.10;21.50
84114;DHT22;74483;48.846;2.358;2024-03-08T02:52:57;21.10;21.50
84114;DHT22;74483;48.846;2.358;2024-03-08T02:55:23;21.00;21.40
84114;DHT22;74483;48.846;2.358;2024-03-08T02:57:51;21.10;21.50
84114;DHT22;74483;48.846;2.358;2024-03-08T03:00:17;21.00;21.30
84114;DHT22;74483;48.846;2.358;2024-03-08T03:02:45;21.00;21.30
84114;DHT22;74483;48.846;2.358;2024-03-08T03:05:10;21.10;21.40
84114;DHT22;74483;48.846;2.358;2024-03-08T03:07:37;21.00;21.30
84114;DHT22;74483;48.846;2.358;2024-03-08T03:10:03;21.00;21.30
84114;DHT22;74483;48.846;2.358;2024-03-08T03:12:29;21.00;21.30
84114;DHT22;74483;48.846;2.358;2024-03-08T03:14:58;21.00;21.30
84114;DHT22;74483;48.846;2.358;2024-03-08T03:17:24;21.00;21.30
84114;DHT22;74483;48.846;2.358;2024-03-08T03:19:50;21.00;21.30
84114;DHT22;74483;48.846;2.358;2024-03-08T03:22:17;21.00;21.30
84114;DHT22;74483;48.846;2.358;2024-03-08T03:24:44;21.00;21.30
84114;DHT22;74483;48.846;2.358;2024-03-08T03:27:12;21.00;21.30
84114;DHT22;74483;48.846;2.358;2024-03-08T03:29:42;21.00;21.30
84114;DHT22;74483;48.846;2.358;2024-03-08T03:32:11;21.00;21.30
84114;DHT22;74483;48.846;2.358;2024-03-08T03:34:37;21.00;21.30
84114;DHT22;74483;48.846;2.358;2024-03-08T03:37:04;21.00;21.30
84114;DHT22;74483;48.846;2.358;2024-03-08T03:39:30;21.00;21.30
84114;DHT22;74483;48.846;2.358;2024-03-08T03:42:00;21.00;21.30
84114;DHT22;74483;48.846;2.358;2024-03-08T03:44:28;21.00;21.30
84114;DHT22;74483;48.846;2.358;2024-03-08T03:46:53;21.00;21.20
84114;DHT22;74483;48.846;2.358;2024-03-08T03:49:19;20.90;21.20
84114;DHT22;74483;48.846;2.358;2024-03-08T03:51:45;20.90;21.20
84114;DHT22;74483;48.846;2.358;2024-03-08T03:54:12;20.90;21.20
84114;DHT22;74483;48.846;2.358;2024-03-08T03:56:38;21.00;21.20
84114;DHT22;74483;48.846;2.358;2024-03-08T03:59:03;21.00;21.20
84114;DHT22;74483;48.846;2.358;2024-03-08T04:01:29;21.00;21.20
84114;DHT22;74483;48.846;2.358;2024-03-08T04:03:55;21.00;21.20
84114;DHT22;74483;48.846;2.358;2024-03-08T04:06:20;21.00;21.20
84114;DHT22;74483;48.846;2.358;2024-03-08T04:08:47;21.00;21.20
84114;DHT22;74483;48.846;2.358;2024-03-08T04:11:13;21.00;21.20
84114;DHT22;74483;48.846;2.358;2024-03-08T04:13:41;21.00;21.20
84114;DHT22;74483;48.846;2.358;2024-03-08T04:16:07;20.90;21.20
84114;DHT22;74483;48.846;2.358;2024-03-08T04:18:34;20.90;21.20
84114;DHT22;74483;48.846;2.358;2024-03-08T04:21:02;20.90;21.20
84114;DHT22;74483;48.846;2.358;2024-03-08T04:23:27;20.90;21.20
84114;DHT22;74483;48.846;2.358;2024-03-08T04:25:54;20.90;21.20
84114;DHT22;74483;48.846;2.358;2024-03-08T04:28:19;20.90;21.20
84114;DHT22;74483;48.846;2.358;2024-03-08T04:30:45;20.90;21.20
84114;DHT22;74483;48.846;2.358;2024-03-08T04:33:11;20.90;21.20
84114;DHT22;74483;48.846;2.358;2024-03-08T04:35:37;20.90;21.20
84114;DHT22;74483;48.846;2.358;2024-03-08T04:38:02;20.90;21.10
84114;DHT22;74483;48.846;2.358;2024-03-08T04:40:30;20.90;21.10
84114;DHT22;74483;48.846;2.358;2024-03-08T04:42:58;21.00;21.10
84114;DHT22;74483;48.846;2.358;2024-03-08T04:45:24;20.90;21.20
84114;DHT22;74483;48.846;2.358;2024-03-08T04:47:51;20.90;21.10
84114;DHT22;74483;48.846;2.358;2024-03-08T04:50:18;20.90;21.10
84114;DHT22;74483;48.846;2.358;2024-03-08T04:52:43;20.90;21.10
84114;DHT22;74483;48.846;2.358;2024-03-08T04:55:09;20.90;21.10
84114;DHT22;74483;48.846;2.358;2024-03-08T04:57:35;20.90;21.10
84114;DHT22;74483;48.846;2.358;2024-03-08T05:00:05;20.90;21.10
84114;DHT22;74483;48.846;2.358;2024-03-08T05:02:40;20.90;21.10
84114;DHT22;74483;48.846;2.358;2024-03-08T05:05:07;20.90;21.10
84114;DHT22;74483;48.846;2.358;2024-03-08T05:07:33;20.90;21.00
84114;DHT22;74483;48.846;2.358;2024-03-08T05:09:59;20.90;21.10
84114;DHT22;74483;48.846;2.358;2024-03-08T05:12:25;20.90;21.00
84114;DHT22;74483;48.846;2.358;2024-03-08T05:14:51;20.90;21.00
84114;DHT22;74483;48.846;2.358;2024-03-08T05:17:17;20.90;21.00
84114;DHT22;74483;48.846;2.358;2024-03-08T05:19:43;20.90;21.00
84114;DHT22;74483;48.846;2.358;2024-03-08T05:22:09;20.90;21.00
84114;DHT22;74483;48.846;2.358;2024-03-08T05:24:34;20.90;21.00
84114;DHT22;74483;48.846;2.358;2024-03-08T05:27:01;20.90;21.00
84114;DHT22;74483;48.846;2.358;2024-03-08T05:29:28;20.90;21.70
84114;DHT22;74483;48.846;2.358;2024-03-08T05:31:54;20.90;21.00
84114;DHT22;74483;48.846;2.358;2024-03-08T05:34:20;20.90;21.00
84114;DHT22;74483;48.846;2.358;2024-03-08T05:36:47;20.90;21.00
84114;DHT22;74483;48.846;2.358;2024-03-08T05:39:15;20.90;21.00
84114;DHT22;74483;48.846;2.358;2024-03-08T05:41:44;20.90;20.90
84114;DHT22;74483;48.846;2.358;2024-03-08T05:44:11;20.90;21.00
84114;DHT22;74483;48.846;2.358;2024-03-08T05:46:37;20.90;20.90
84114;DHT22;74483;48.846;2.358;2024-03-08T05:49:06;20.90;20.90
84114;DHT22;74483;48.846;2.358;2024-03-08T05:51:33;20.90;20.90
84114;DHT22;74483;48.846;2.358;2024-03-08T05:54:04;20.90;21.00
84114;DHT22;74483;48.846;2.358;2024-03-08T05:56:31;20.90;20.90
84114;DHT22;74483;48.846;2.358;2024-03-08T05:58:57;20.90;20.90
84114;DHT22;74483;48.846;2.358;2024-03-08T06:01:24;20.90;20.90
84114;DHT22;74483;48.846;2.358;2024-03-08T06:03:49;20.90;20.90
84114;DHT22;74483;48.846;2.358;2024-03-08T06:06:15;20.90;20.90
84114;DHT22;74483;48.846;2.358;2024-03-08T06:08:41;20.90;20.90
84114;DHT22;74483;48.846;2.358;2024-03-08T06:11:08;20.90;20.90
84114;DHT22;74483;48.846;2.358;2024-03-08T06:13:34;20.90;20.90
84114;DHT22;74483;48.846;2.358;2024-03-08T06:16:01;20.90;20.90
84114;DHT22;74483;48.846;2.358;2024-03-08T06:18:32;20.90;20.80
84114;DHT22;74483;48.846;2.358;2024-03-08T06:20:58;20.90;20.80
84114;DHT22;74483;48.846;2.358;2024-03-08T06:23:23;20.90;20.80
84114;DHT22;74483;48.846;2.358;2024-03-08T06:25:49;20.90;20.80
84114;DHT22;74483;48.846;2.358;2024-03-08T06:28:14;20.90;20.70
84114;DHT22;74483;48.846;2.358;2024-03-08T06:30:40;21.00;20.80
84114;DHT22;74483;48.846;2.358;2024-03-08T06:33:06;20.90;20.70
84114;DHT22;74483;48.846;2.358;2024-03-08T06:35:32;20.90;20.70
84114;DHT22;74483;48.846;2.358;2024-03-08T06:38:01;20.90;20.70
84114;DHT22;74483;48.846;2.358;2024-03-08T06:40:26;21.00;20.70
84114;DHT22;74483;48.846;2.358;2024-03-08T06:42:52;21.00;20.70
84114;DHT22;74483;48.846;2.358;2024-03-08T06:45:17;21.00;20.70
84114;DHT22;74483;48.846;2.358;2024-03-08T06:47:46;21.00;20.70
84114;DHT22;74483;48.846;2.358;2024-03-08T06:50:12;21.00;20.60
84114;DHT22;74483;48.846;2.358;2024-03-08T06:52:38;21.00;20.60
84114;DHT22;74483;48.846;2.358;2024-03-08T06:55:04;21.00;20.50
84114;DHT22;74483;48.846;2.358;2024-03-08T06:57:31;21.00;20.50
84114;DHT22;74483;48.846;2.358;2024-03-08T06:59:56;21.00;20.50
84114;DHT22;74483;48.846;2.358;2024-03-08T07:02:25;21.10;20.50
84114;DHT22;74483;48.846;2.358;2024-03-08T07:04:51;21.10;20.50
84114;DHT22;74483;48.846;2.358;2024-03-08T07:07:18;21.10;20.50
84114;DHT22;74483;48.846;2.358;2024-03-08T07:09:46;21.10;20.40
84114;DHT22;74483;48.846;2.358;2024-03-08T07:12:11;21.10;20.40
84114;DHT22;74483;48.846;2.358;2024-03-08T07:14:39;21.10;20.40
84114;DHT22;74483;48.846;2.358;2024-03-08T07:17:07;21.10;20.30
84114;DHT22;74483;48.846;2.358;2024-03-08T07:19:34;21.20;20.30
84114;DHT22;74483;48.846;2.358;2024-03-08T07:22:00;21.20;20.20
84114;DHT22;74483;48.846;2.358;2024-03-08T07:24:25;21.20;20.20
84114;DHT22;74483;48.846;2.358;2024-03-08T07:27:10;21.20;20.20
84114;DHT22;74483;48.846;2.358;2024-03-08T07:29:37;21.30;20.20
84114;DHT22;74483;48.846;2.358;2024-03-08T07:32:03;21.30;20.10
84114;DHT22;74483;48.846;2.358;2024-03-08T07:34:49;21.40;20.00
84114;DHT22;74483;48.846;2.358;2024-03-08T07:37:16;21.40;20.00
84114;DHT22;74483;48.846;2.358;2024-03-08T07:39:42;21.40;20.00
84114;DHT22;74483;48.846;2.358;2024-03-08T07:42:09;21.40;19.90
84114;DHT22;74483;48.846;2.358;2024-03-08T07:44:35;21.40;19.90
84114;DHT22;74483;48.846;2.358;2024-03-08T07:47:01;21.50;19.90
84114;DHT22;74483;48.846;2.358;2024-03-08T07:49:26;21.50;19.90
84114;DHT22;74483;48.846;2.358;2024-03-08T07:51:52;21.50;19.90
84114;DHT22;74483;48.846;2.358;2024-03-08T07:54:17;21.50;19.90
84114;DHT22;74483;48.846;2.358;2024-03-08T07:56:43;21.60;19.90
84114;DHT22;74483;48.846;2.358;2024-03-08T07:59:09;21.60;19.80
84114;DHT22;74483;48.846;2.358;2024-03-08T08:01:36;21.50;19.80
84114;DHT22;74483;48.846;2.358;2024-03-08T08:04:02;21.50;19.70
84114;DHT22;74483;48.846;2.358;2024-03-08T08:06:28;21.60;19.70
84114;DHT22;74483;48.846;2.358;2024-03-08T08:08:57;21.60;19.70
84114;DHT22;74483;48.846;2.358;2024-03-08T08:11:25;21.60;19.70
84114;DHT22;74483;48.846;2.358;2024-03-08T08:13:51;21.60;19.60
84114;DHT22;74483;48.846;2.358;2024-03-08T08:16:16;21.60;19.70
84114;DHT22;74483;48.846;2.358;2024-03-08T08:18:42;21.70;19.70
84114;DHT22;74483;48.846;2.358;2024-03-08T08:21:07;21.70;19.60
84114;DHT22;74483;48.846;2.358;2024-03-08T08:23:33;21.70;19.60
84114;DHT22;74483;48.846;2.358;2024-03-08T08:25:59;21.70;19.60
84114;DHT22;74483;48.846;2.358;2024-03-08T08:28:24;21.70;19.60
84114;DHT22;74483;48.846;2.358;2024-03-08T08:30:50;21.70;19.50
84114;DHT22;74483;48.846;2.358;2024-03-08T08:33:16;21.80;19.50
84114;DHT22;74483;48.846;2.358;2024-03-08T08:35:42;21.80;19.40
84114;DHT22;74483;48.846;2.358;2024-03-08T08:38:08;21.80;19.40
84114;DHT22;74483;48.846;2.358;2024-03-08T08:40:34;21.80;19.40
84114;DHT22;74483;48.846;2.358;2024-03-08T08:43:01;21.80;19.40
84114;DHT22;74483;48.846;2.358;2024-03-08T08:45:30;21.90;19.40
84114;DHT22;74483;48.846;2.358;2024-03-08T08:47:56;21.80;19.30
84114;DHT22;74483;48.846;2.358;2024-03-08T08:50:22;21.90;19.40
84114;DHT22;74483;48.846;2.358;2024-03-08T08:52:52;22.00;19.20
84114;DHT22;74483;48.846;2.358;2024-03-08T08:55:18;22.00;19.20
84114;DHT22;74483;48.846;2.358;2024-03-08T08:57:47;22.10;19.10
84114;DHT22;74483;48.846;2.358;2024-03-08T09:00:13;22.20;18.90
84114;DHT22;74483;48.846;2.358;2024-03-08T09:02:41;22.40;18.80
84114;DHT22;74483;48.846;2.358;2024-03-08T09:05:07;22.50;18.60
84114;DHT22;74483;48.846;2.358;2024-03-08T09:07:37;22.50;18.10
84114;DHT22;74483;48.846;2.358;2024-03-08T09:10:03;22.60;17.90
84114;DHT22;74483;48.846;2.358;2024-03-08T09:12:29;22.60;17.60
84114;DHT22;74483;48.846;2.358;2024-03-08T09:14:55;22.70;17.50
84114;DHT22;74483;48.846;2.358;2024-03-08T09:17:20;22.70;17.50
84114;DHT22;74483;48.846;2.358;2024-03-08T09:19:49;22.80;17.50
84114;DHT22;74483;48.846;2.358;2024-03-08T09:22:15;22.80;17.50
84114;DHT22;74483;48.846;2.358;2024-03-08T09:24:41;22.70;17.50
84114;DHT22;74483;48.846;2.358;2024-03-08T09:27:08;22.70;17.50
84114;DHT22;74483;48.846;2.358;2024-03-08T09:29:35;22.70;17.50
84114;DHT22;74483;48.846;2.358;2024-03-08T09:32:01;22.70;17.60
84114;DHT22;74483;48.846;2.358;2024-03-08T09:34:27;22.70;17.50
84114;DHT22;74483;48.846;2.358;2024-03-08T09:36:52;22.70;17.50
84114;DHT22;74483;48.846;2.358;2024-03-08T09:39:19;22.70;17.50
84114;DHT22;74483;48.846;2.358;2024-03-08T09:41:46;22.70;17.50
84114;DHT22;74483;48.846;2.358;2024-03-08T09:44:15;22.80;17.50
84114;DHT22;74483;48.846;2.358;2024-03-08T09:46:42;22.70;17.50
84114;DHT22;74483;48.846;2.358;2024-03-08T09:49:08;22.80;17.50
84114;DHT22;74483;48.846;2.358;2024-03-08T09:51:35;22.80;17.50
84114;DHT22;74483;48.846;2.358;2024-03-08T09:54:05;22.90;17.40
84114;DHT22;74483;48.846;2.358;2024-03-08T09:56:35;22.90;17.40
84114;DHT22;74483;48.846;2.358;2024-03-08T09:59:01;22.90;17.30
84114;DHT22;74483;48.846;2.358;2024-03-08T10:02:05;22.90;17.30
84114;DHT22;74483;48.846;2.358;2024-03-08T10:04:32;22.90;17.40
84114;DHT22;74483;48.846;2.358;2024-03-08T10:06:59;22.90;17.40
84114;DHT22;74483;48.846;2.358;2024-03-08T10:09:25;22.90;17.30
84114;DHT22;74483;48.846;2.358;2024-03-08T10:11:58;23.10;17.10
84114;DHT22;74483;48.846;2.358;2024-03-08T10:14:25;23.30;16.90
84114;DHT22;74483;48.846;2.358;2024-03-08T10:16:52;23.40;16.70
84114;DHT22;74483;48.846;2.358;2024-03-08T10:19:17;23.50;17.10
84114;DHT22;74483;48.846;2.358;2024-03-08T10:21:50;23.60;16.60
84114;DHT22;74483;48.846;2.358;2024-03-08T10:24:18;23.50;16.60
84114;DHT22;74483;48.846;2.358;2024-03-08T10:26:44;23.50;16.70
84114;DHT22;74483;48.846;2.358;2024-03-08T10:29:10;23.50;16.70
84114;DHT22;74483;48.846;2.358;2024-03-08T10:31:43;23.50;16.80
84114;DHT22;74483;48.846;2.358;2024-03-08T10:34:09;23.50;16.90
84114;DHT22;74483;48.846;2.358;2024-03-08T10:36:36;23.40;16.90
84114;DHT22;74483;48.846;2.358;2024-03-08T10:39:27;23.50;17.00
84114;DHT22;74483;48.846;2.358;2024-03-08T10:42:03;23.50;17.00
84114;DHT22;74483;48.846;2.358;2024-03-08T10:49:38;23.40;17.10
84114;DHT22;74483;48.846;2.358;2024-03-08T10:52:05;23.50;17.20
84114;DHT22;74483;48.846;2.358;2024-03-08T10:54:34;23.50;17.20
84114;DHT22;74483;48.846;2.358;2024-03-08T10:57:05;23.60;17.10
84114;DHT22;74483;48.846;2.358;2024-03-08T10:59:32;23.60;17.10
84114;DHT22;74483;48.846;2.358;2024-03-08T11:01:59;23.70;17.10
84114;DHT22;74483;48.846;2.358;2024-03-08T11:04:25;23.70;17.10
84114;DHT22;74483;48.846;2.358;2024-03-08T11:06:51;23.70;17.00
84114;DHT22;74483;48.846;2.358;2024-03-08T11:09:35;23.80;16.90
84114;DHT22;74483;48.846;2.358;2024-03-08T11:14:50;23.80;17.00
84114;DHT22;74483;48.846;2.358;2024-03-08T11:17:26;23.70;17.00
84114;DHT22;74483;48.846;2.358;2024-03-08T11:20:11;23.70;17.10
84114;DHT22;74483;48.846;2.358;2024-03-08T11:22:51;23.80;17.10
84114;DHT22;74483;48.846;2.358;2024-03-08T11:25:38;23.80;17.20
84114;DHT22;74483;48.846;2.358;2024-03-08T11:28:19;23.80;17.10
84114;DHT22;74483;48.846;2.358;2024-03-08T11:33:31;23.80;17.00
84114;DHT22;74483;48.846;2.358;2024-03-08T11:36:32;23.90;17.10
84114;DHT22;74483;48.846;2.358;2024-03-08T11:39:01;23.80;17.00
84114;DHT22;74483;48.846;2.358;2024-03-08T11:41:34;23.80;17.00
84114;DHT22;74483;48.846;2.358;2024-03-08T11:44:04;23.90;17.10
84114;DHT22;74483;48.846;2.358;2024-03-08T11:46:30;23.90;17.00
84114;DHT22;74483;48.846;2.358;2024-03-08T11:48:56;23.90;17.10
84114;DHT22;74483;48.846;2.358;2024-03-08T11:51:22;23.90;17.10
84114;DHT22;74483;48.846;2.358;2024-03-08T11:53:49;23.90;17.10
84114;DHT22;74483;48.846;2.358;2024-03-08T11:56:16;23.90;17.20
84114;DHT22;74483;48.846;2.358;2024-03-08T11:58:47;23.90;17.20
84114;DHT22;74483;48.846;2.358;2024-03-08T12:01:17;23.90;17.20
84114;DHT22;74483;48.846;2.358;2024-03-08T12:03:43;23.90;17.20
84114;DHT22;74483;48.846;2.358;2024-03-08T12:06:09;23.90;17.20
84114;DHT22;74483;48.846;2.358;2024-03-08T12:08:36;23.80;17.20
84114;DHT22;74483;48.846;2.358;2024-03-08T12:11:04;23.80;17.30
84114;DHT22;74483;48.846;2.358;2024-03-08T12:13:32;23.80;17.30
84114;DHT22;74483;48.846;2.358;2024-03-08T12:15:58;23.80;17.30
84114;DHT22;74483;48.846;2.358;2024-03-08T12:18:27;23.80;17.30
84114;DHT22;74483;48.846;2.358;2024-03-08T12:21:12;23.80;17.40
84114;DHT22;74483;48.846;2.358;2024-03-08T12:23:45;23.80;17.40
84114;DHT22;74483;48.846;2.358;2024-03-08T12:26:16;23.70;17.40
84114;DHT22;74483;48.846;2.358;2024-03-08T12:28:42;23.70;17.50
84114;DHT22;74483;48.846;2.358;2024-03-08T12:31:12;23.60;17.50
84114;DHT22;74483;48.846;2.358;2024-03-08T12:33:50;23.60;17.50
84114;DHT22;74483;48.846;2.358;2024-03-08T12:36:17;23.60;17.50
84114;DHT22;74483;48.846;2.358;2024-03-08T12:38:46;23.60;17.60
84114;DHT22;74483;48.846;2.358;2024-03-08T12:41:16;23.60;17.60
84114;DHT22;74483;48.846;2.358;2024-03-08T12:43:43;23.60;17.60
84114;DHT22;74483;48.846;2.358;2024-03-08T12:46:14;23.70;17.60
84114;DHT22;74483;48.846;2.358;2024-03-08T12:48:40;23.70;17.70
84114;DHT22;74483;48.846;2.358;2024-03-08T12:51:09;23.70;17.60
84114;DHT22;74483;48.846;2.358;2024-03-08T12:53:35;23.70;17.60
84114;DHT22;74483;48.846;2.358;2024-03-08T12:56:01;23.70;17.70
84114;DHT22;74483;48.846;2.358;2024-03-08T12:58:29;23.70;17.80
84114;DHT22;74483;48.846;2.358;2024-03-08T13:00:54;23.70;17.80
84114;DHT22;74483;48.846;2.358;2024-03-08T13:03:20;23.70;17.80
84114;DHT22;74483;48.846;2.358;2024-03-08T13:05:48;23.70;18.00
84114;DHT22;74483;48.846;2.358;2024-03-08T13:08:14;23.70;18.00
84114;DHT22;74483;48.846;2.358;2024-03-08T13:10:41;23.70;18.00
84114;DHT22;74483;48.846;2.358;2024-03-08T13:13:09;23.60;18.00
84114;DHT22;74483;48.846;2.358;2024-03-08T13:15:35;23.60;18.10
84114;DHT22;74483;48.846;2.358;2024-03-08T13:18:01;23.70;18.10
84114;DHT22;74483;48.846;2.358;2024-03-08T13:20:27;23.70;18.10
84114;DHT22;74483;48.846;2.358;2024-03-08T13:22:54;23.70;18.20
84114;DHT22;74483;48.846;2.358;2024-03-08T13:25:19;23.70;18.30
84114;DHT22;74483;48.846;2.358;2024-03-08T13:27:45;23.70;18.40
84114;DHT22;74483;48.846;2.358;2024-03-08T13:30:13;23.70;18.50
84114;DHT22;74483;48.846;2.358;2024-03-08T13:32:42;23.70;18.60
84114;DHT22;74483;48.846;2.358;2024-03-08T13:35:12;23.80;18.70
84114;DHT22;74483;48.846;2.358;2024-03-08T13:37:41;23.70;18.80
84114;DHT22;74483;48.846;2.358;2024-03-08T13:40:08;23.70;18.90
84114;DHT22;74483;48.846;2.358;2024-03-08T13:42:41;23.80;18.90
84114;DHT22;74483;48.846;2.358;2024-03-08T13:45:09;23.80;18.90
84114;DHT22;74483;48.846;2.358;2024-03-08T13:47:40;23.80;19.00
84114;DHT22;74483;48.846;2.358;2024-03-08T13:50:07;23.90;19.10
84114;DHT22;74483;48.846;2.358;2024-03-08T13:52:37;23.90;19.10
84114;DHT22;74483;48.846;2.358;2024-03-08T13:55:07;23.90;19.20
84114;DHT22;74483;48.846;2.358;2024-03-08T13:57:33;23.90;19.20
84114;DHT22;74483;48.846;2.358;2024-03-08T13:59:59;23.90;19.20
84114;DHT22;74483;48.846;2.358;2024-03-08T14:02:25;23.90;19.30
84114;DHT22;74483;48.846;2.358;2024-03-08T14:04:54;23.90;19.30
84114;DHT22;74483;48.846;2.358;2024-03-08T14:07:23;23.90;19.50
84114;DHT22;74483;48.846;2.358;2024-03-08T14:09:49;24.00;19.60
84114;DHT22;74483;48.846;2.358;2024-03-08T14:12:15;24.00;19.50
84114;DHT22;74483;48.846;2.358;2024-03-08T14:14:41;24.00;19.70
84114;DHT22;74483;48.846;2.358;2024-03-08T14:17:07;24.00;19.70
84114;DHT22;74483;48.846;2.358;2024-03-08T14:19:35;23.90;19.80
84114;DHT22;74483;48.846;2.358;2024-03-08T14:22:01;24.00;19.90
84114;DHT22;74483;48.846;2.358;2024-03-08T14:24:32;24.00;20.00
84114;DHT22;74483;48.846;2.358;2024-03-08T14:27:01;24.00;20.00
84114;DHT22;74483;48.846;2.358;2024-03-08T14:29:28;24.00;19.90
84114;DHT22;74483;48.846;2.358;2024-03-08T14:31:55;24.00;19.80
84114;DHT22;74483;48.846;2.358;2024-03-08T14:34:24;24.00;19.80
84114;DHT22;74483;48.846;2.358;2024-03-08T14:36:52;24.00;19.70
84114;DHT22;74483;48.846;2.358;2024-03-08T14:39:19;24.00;19.70
84114;DHT22;74483;48.846;2.358;2024-03-08T14:41:52;24.00;19.60
84114;DHT22;74483;48.846;2.358;2024-03-08T14:44:22;24.00;19.60
84114;DHT22;74483;48.846;2.358;2024-03-08T14:46:55;24.00;19.60
84114;DHT22;74483;48.846;2.358;2024-03-08T14:49:22;24.00;19.60
84114;DHT22;74483;48.846;2.358;2024-03-08T14:51:48;23.90;19.60
84114;DHT22;74483;48.846;2.358;2024-03-08T14:54:13;23.90;19.60
84114;DHT22;74483;48.846;2.358;2024-03-08T14:56:39;23.90;19.60
84114;DHT22;74483;48.846;2.358;2024-03-08T14:59:08;23.90;19.60
84114;DHT22;74483;48.846;2.358;2024-03-08T15:01:37;23.80;19.50
84114;DHT22;74483;48.846;2.358;2024-03-08T15:04:03;23.80;19.50
84114;DHT22;74483;48.846;2.358;2024-03-08T15:06:35;23.80;19.60
84114;DHT22;74483;48.846;2.358;2024-03-08T15:09:02;23.80;19.60
84114;DHT22;74483;48.846;2.358;2024-03-08T15:11:40;23.80;19.60
84114;DHT22;74483;48.846;2.358;2024-03-08T15:14:05;23.80;19.60
84114;DHT22;74483;48.846;2.358;2024-03-08T15:16:36;23.80;19.50
84114;DHT22;74483;48.846;2.358;2024-03-08T15:19:02;23.80;19.50
84114;DHT22;74483;48.846;2.358;2024-03-08T15:21:27;23.80;19.50
84114;DHT22;74483;48.846;2.358;2024-03-08T15:23:54;23.80;19.60
84114;DHT22;74483;48.846;2.358;2024-03-08T15:26:20;23.80;19.70
84114;DHT22;74483;48.846;2.358;2024-03-08T15:28:45;23.80;19.80
84114;DHT22;74483;48.846;2.358;2024-03-08T15:31:13;23.80;19.90
84114;DHT22;74483;48.846;2.358;2024-03-08T15:33:41;23.80;20.00
84114;DHT22;74483;48.846;2.358;2024-03-08T15:36:11;23.90;20.10
84114;DHT22;74483;48.846;2.358;2024-03-08T15:38:40;23.90;20.30
84114;DHT22;74483;48.846;2.358;2024-03-08T15:41:05;23.90;20.30
84114;DHT22;74483;48.846;2.358;2024-03-08T15:43:41;23.90;20.40